createdAt,value
2022-09-14T00:01:25.433Z,100230.00
2022-09-14T00:03:58.050Z,100228.00
2022-09-14T00:06:25.097Z,100232.00
2022-09-14T00:08:53.355Z,100220.00
2022-09-14T00:11:21.775Z,100222.00
2022-09-14T00:13:49.460Z,100216.00
2022-09-14T00:16:24.827Z,100217.00
2022-09-14T00:18:53.254Z,100211.00
2022-09-14T00:21:23.350Z,100205.00
2022-09-14T00:23:50.358Z,100198.00
2022-09-14T00:26:21.218Z,100198.00
2022-09-14T00:28:50.530Z,100199.00
2022-09-14T00:31:18.198Z,100198.00
2022-09-14T00:33:47.463Z,100188.00
2022-09-14T00:36:16.400Z,100194.00
2022-09-14T00:38:43.374Z,100182.00
2022-09-14T00:41:18.412Z,100181.00
2022-09-14T00:43:55.208Z,100168.00
2022-09-14T00:46:22.795Z,100169.00
2022-09-14T00:48:49.925Z,100167.00
2022-09-14T00:51:18.800Z,100182.00
2022-09-14T00:53:46.054Z,100181.00
2022-09-14T00:56:14.237Z,100186.00
2022-09-14T00:58:43.116Z,100190.00
2022-09-14T01:01:10.655Z,100191.00
2022-09-14T01:03:37.504Z,100192.00
2022-09-14T01:06:26.331Z,100175.00
2022-09-14T01:09:05.003Z,100187.00
2022-09-14T01:12:02.286Z,100189.00
2022-09-14T01:14:36.408Z,100190.00
2022-09-14T01:17:21.989Z,100186.00
2022-09-14T01:20:22.978Z,100181.00
2022-09-14T01:23:00.008Z,100198.00
2022-09-14T01:25:48.456Z,100195.00
2022-09-14T01:28:46.187Z,100179.00
2022-09-14T01:31:21.241Z,100183.00
2022-09-14T01:34:07.291Z,100186.00
2022-09-14T01:36:36.535Z,100177.00
2022-09-14T01:39:03.679Z,100179.00
2022-09-14T01:41:31.788Z,100190.00
2022-09-14T01:44:04.262Z,100192.00
2022-09-14T01:46:37.772Z,100187.00
2022-09-14T01:49:24.726Z,100191.00
2022-09-14T01:52:14.375Z,100182.00
2022-09-14T01:54:49.763Z,100193.00
2022-09-14T01:57:38.387Z,100187.00
2022-09-14T02:00:10.682Z,100178.00
2022-09-14T02:02:44.789Z,100167.00
2022-09-14T02:05:49.251Z,100166.00
2022-09-14T02:08:16.240Z,100169.00
2022-09-14T02:10:43.473Z,100165.00
2022-09-14T02:13:10.238Z,100165.00
2022-09-14T02:15:37.398Z,100166.00
2022-09-14T02:18:04.772Z,100160.00
2022-09-14T02:20:37.710Z,100165.00
2022-09-14T02:23:05.547Z,100164.00
2022-09-14T02:25:32.765Z,100162.00
2022-09-14T02:27:59.593Z,100163.00
2022-09-14T02:30:27.051Z,100154.00
2022-09-14T02:33:11.239Z,100162.00
2022-09-14T02:35:53.820Z,100163.00
2022-09-14T02:38:32.783Z,100158.00
2022-09-14T02:41:09.699Z,100156.00
2022-09-14T02:43:51.824Z,100156.00
2022-09-14T02:46:43.521Z,100152.00
2022-09-14T02:49:28.348Z,100149.00
2022-09-14T02:52:04.158Z,100149.00
2022-09-14T02:54:42.979Z,100148.00
2022-09-14T02:57:09.658Z,100138.00
2022-09-14T02:59:36.393Z,100138.00
2022-09-14T03:02:03.235Z,100134.00
2022-09-14T03:04:30.021Z,100142.00
2022-09-14T03:06:56.874Z,100129.00
2022-09-14T03:09:23.617Z,100126.00
2022-09-14T03:11:50.352Z,100131.00
2022-09-14T03:14:17.116Z,100127.00
2022-09-14T03:16:43.829Z,100126.00
2022-09-14T03:19:12.279Z,100115.00
2022-09-14T03:21:39.760Z,100113.00
2022-09-14T03:24:06.878Z,100114.00
2022-09-14T03:26:36.764Z,100110.00
2022-09-14T03:29:04.798Z,100111.00
2022-09-14T03:31:31.889Z,100118.00
2022-09-14T03:34:00.327Z,100110.00
2022-09-14T03:36:29.493Z,100118.00
2022-09-14T03:38:58.749Z,100111.00
2022-09-14T03:41:25.703Z,100115.00
2022-09-14T03:43:52.777Z,100120.00
2022-09-14T03:46:23.154Z,100118.00
2022-09-14T03:48:50.266Z,100124.00
2022-09-14T03:51:17.389Z,100126.00
2022-09-14T03:53:45.144Z,100115.00
2022-09-14T03:56:15.461Z,100120.00
2022-09-14T03:58:42.836Z,100118.00
2022-09-14T04:01:12.317Z,100119.00
2022-09-14T04:03:39.071Z,100118.00
2022-09-14T04:06:06.694Z,100126.00
2022-09-14T04:08:34.993Z,100107.00
2022-09-14T04:11:14.980Z,100125.00
2022-09-14T04:13:42.022Z,100109.00
2022-09-14T04:16:08.967Z,100119.00
2022-09-14T04:18:35.866Z,100107.00
2022-09-14T04:21:08.659Z,100109.00
2022-09-14T04:23:46.162Z,100092.00
2022-09-14T04:26:19.744Z,100110.00
2022-09-14T04:28:46.753Z,100091.00
2022-09-14T04:31:14.102Z,100113.00
2022-09-14T04:33:43.083Z,100105.00
2022-09-14T04:36:14.019Z,100108.00
2022-09-14T04:38:41.885Z,100115.00
2022-09-14T04:41:17.247Z,100108.00
2022-09-14T04:43:45.383Z,100110.00
2022-09-14T04:46:17.616Z,100111.00
2022-09-14T04:48:44.431Z,100098.00
2022-09-14T04:51:17.004Z,100098.00
2022-09-14T04:53:45.255Z,100097.00
2022-09-14T04:56:12.968Z,100085.00
2022-09-14T04:58:50.705Z,100090.00
2022-09-14T05:01:21.175Z,100077.00
2022-09-14T05:03:48.029Z,100074.00
2022-09-14T05:06:17.721Z,100078.00
2022-09-14T05:08:44.950Z,100077.00
2022-09-14T05:11:23.843Z,100078.00
2022-09-14T05:13:51.128Z,100076.00
2022-09-14T05:16:29.846Z,100066.00
2022-09-14T05:19:01.745Z,100074.00
2022-09-14T05:21:30.161Z,100079.00
2022-09-14T05:24:02.011Z,100082.00
2022-09-14T05:26:30.398Z,100083.00
2022-09-14T05:28:58.776Z,100088.00
2022-09-14T05:31:26.673Z,100081.00
2022-09-14T05:33:54.099Z,100081.00
2022-09-14T05:36:20.859Z,100078.00
2022-09-14T05:38:47.687Z,100078.00
2022-09-14T05:41:15.541Z,100081.00
2022-09-14T05:43:42.923Z,100076.00
2022-09-14T05:46:14.676Z,100082.00
2022-09-14T05:48:41.749Z,100079.00
2022-09-14T05:51:12.273Z,100101.00
2022-09-14T05:53:38.954Z,100093.00
2022-09-14T05:56:11.088Z,100098.00
2022-09-14T05:58:38.960Z,100106.00
2022-09-14T06:01:20.172Z,100103.00
2022-09-14T06:03:48.194Z,100094.00
2022-09-14T06:06:18.053Z,100095.00
2022-09-14T06:08:45.467Z,100104.00
2022-09-14T06:11:17.225Z,100091.00
2022-09-14T06:13:44.359Z,100095.00
2022-09-14T06:16:13.246Z,100084.00
2022-09-14T06:18:41.279Z,100092.00
2022-09-14T06:21:09.799Z,100093.00
2022-09-14T06:23:36.803Z,100092.00
2022-09-14T06:26:05.079Z,100091.00
2022-09-14T06:28:32.509Z,100100.00
2022-09-14T06:30:59.718Z,100099.00
2022-09-14T06:33:26.703Z,100103.00
2022-09-14T06:36:02.744Z,100102.00
2022-09-14T06:38:29.854Z,100106.00
2022-09-14T06:40:58.195Z,100116.00
2022-09-14T06:43:29.781Z,100120.00
2022-09-14T06:46:11.835Z,100109.00
2022-09-14T06:48:42.610Z,100110.00
2022-09-14T06:51:18.533Z,100126.00
2022-09-14T06:53:46.642Z,100119.00
2022-09-14T06:56:13.966Z,100115.00
2022-09-14T06:58:41.272Z,100149.00
2022-09-14T07:01:16.618Z,100145.00
2022-09-14T07:03:43.961Z,100155.00
2022-09-14T07:06:13.705Z,100160.00
2022-09-14T07:08:41.034Z,100147.00
2022-09-14T07:11:09.954Z,100163.00
2022-09-14T07:13:36.707Z,100168.00
2022-09-14T07:16:03.886Z,100171.00
2022-09-14T07:18:34.009Z,100147.00
2022-09-14T07:21:08.339Z,100147.00
2022-09-14T07:23:36.615Z,100159.00
2022-09-14T07:26:05.234Z,100170.00
2022-09-14T07:28:33.091Z,100163.00
2022-09-14T07:31:00.468Z,100173.00
2022-09-14T07:33:27.554Z,100183.00
2022-09-14T07:35:54.359Z,100185.00
2022-09-14T07:38:35.781Z,100187.00
2022-09-14T07:41:08.030Z,100187.00
2022-09-14T07:43:34.980Z,100203.00
2022-09-14T07:46:04.345Z,100214.00
2022-09-14T07:48:32.365Z,100206.00
2022-09-14T07:51:04.627Z,100210.00
2022-09-14T07:53:32.209Z,100206.00
2022-09-14T07:56:01.020Z,100199.00
2022-09-14T07:58:29.029Z,100190.00
2022-09-14T08:01:04.167Z,100170.00
2022-09-14T08:03:31.586Z,100200.00
2022-09-14T08:06:02.971Z,100186.00
2022-09-14T08:08:31.320Z,100188.00
2022-09-14T08:11:06.681Z,100175.00
2022-09-14T08:13:37.924Z,100201.00
2022-09-14T08:16:06.086Z,100195.00
2022-09-14T08:18:33.841Z,100205.00
2022-09-14T08:21:11.170Z,100196.00
2022-09-14T08:23:38.595Z,100190.00
2022-09-14T08:26:05.949Z,100209.00
2022-09-14T08:28:33.935Z,100196.00
2022-09-14T08:31:11.694Z,100198.00
2022-09-14T08:33:46.210Z,100223.00
2022-09-14T08:36:15.153Z,100215.00
2022-09-14T08:38:42.207Z,100211.00
2022-09-14T08:41:18.206Z,100208.00
2022-09-14T08:43:46.547Z,100208.00
2022-09-14T08:46:37.913Z,100211.00
2022-09-14T08:49:14.838Z,100208.00
2022-09-14T08:51:47.825Z,100237.00
2022-09-14T08:54:14.560Z,100219.00
2022-09-14T09:00:00.976Z,100247.00
2022-09-14T09:02:27.699Z,100221.00
2022-09-14T09:05:25.959Z,100225.00
2022-09-14T09:08:00.210Z,100208.00
2022-09-14T09:10:27.661Z,100228.00
2022-09-14T09:12:57.661Z,100206.00
2022-09-14T09:15:29.756Z,100224.00
2022-09-14T09:18:01.391Z,100221.00
2022-09-14T09:20:31.821Z,100230.00
2022-09-14T09:23:23.477Z,100203.00
2022-09-14T09:26:27.772Z,100219.00
2022-09-14T09:28:57.382Z,100176.00
2022-09-14T09:31:34.661Z,100195.00
2022-09-14T09:34:01.907Z,100196.00
2022-09-14T09:36:33.650Z,100181.00
2022-09-14T09:39:04.394Z,100182.00
2022-09-14T09:41:45.025Z,100179.00
2022-09-14T09:44:11.861Z,100200.00
2022-09-14T09:46:47.763Z,100196.00
2022-09-14T09:49:18.160Z,100172.00
2022-09-14T09:51:45.076Z,100148.00
2022-09-14T09:54:15.312Z,100174.00
2022-09-14T09:56:51.154Z,100171.00
2022-09-14T09:59:23.676Z,100157.00
2022-09-14T10:01:52.258Z,100155.00
2022-09-14T10:04:22.332Z,100150.00
2022-09-14T10:06:51.133Z,100145.00
2022-09-14T10:09:20.405Z,100130.00
2022-09-14T10:11:48.364Z,100148.00
2022-09-14T10:14:33.245Z,100137.00
2022-09-14T10:17:23.033Z,100137.00
2022-09-14T10:19:54.887Z,100154.00
2022-09-14T10:22:33.093Z,100141.00
2022-09-14T10:25:20.159Z,100166.00
2022-09-14T10:28:13.775Z,100182.00
2022-09-14T10:30:49.313Z,100182.00
2022-09-14T10:33:17.248Z,100200.00
2022-09-14T10:36:05.474Z,100196.00
2022-09-14T10:38:35.692Z,100247.00
2022-09-14T10:41:36.554Z,100218.00
2022-09-14T10:44:09.024Z,100197.00
2022-09-14T10:47:06.731Z,100208.00
2022-09-14T10:50:15.780Z,100213.00
2022-09-14T10:53:08.350Z,100225.00
2022-09-14T10:56:11.598Z,100237.00
2022-09-14T10:59:06.199Z,100227.00
2022-09-14T11:01:51.842Z,100217.00
2022-09-14T11:04:40.092Z,100233.00
2022-09-14T11:07:29.493Z,100237.00
2022-09-14T11:09:57.158Z,100240.00
2022-09-14T11:12:38.556Z,100214.00
2022-09-14T11:15:08.569Z,100220.00
2022-09-14T11:17:46.776Z,100199.00
2022-09-14T11:20:13.596Z,100184.00
2022-09-14T11:22:56.398Z,100180.00
2022-09-14T11:25:31.463Z,100174.00
2022-09-14T11:28:00.990Z,100177.00
2022-09-14T11:30:45.444Z,100156.00
2022-09-14T11:33:43.885Z,100194.00
2022-09-14T11:36:23.332Z,100177.00
2022-09-14T11:38:54.866Z,100175.00
2022-09-14T11:41:56.986Z,100170.00
2022-09-14T11:44:42.367Z,100171.00
2022-09-14T11:47:19.998Z,100172.00
2022-09-14T11:50:15.470Z,100190.00
2022-09-14T11:52:42.182Z,100170.00
2022-09-14T11:55:11.739Z,100207.00
2022-09-14T11:57:38.571Z,100221.00
2022-09-14T12:00:12.311Z,100222.00
2022-09-14T12:02:41.098Z,100193.00
2022-09-14T12:05:08.128Z,100198.00
2022-09-14T12:07:42.663Z,100177.00
2022-09-14T12:10:15.307Z,100209.00
2022-09-14T12:12:56.187Z,100211.00
2022-09-14T12:15:28.899Z,100195.00
2022-09-14T12:18:07.751Z,100170.00
2022-09-14T12:20:37.619Z,100152.00
2022-09-14T12:23:26.772Z,100169.00
2022-09-14T12:25:57.668Z,100142.00
2022-09-14T12:28:48.692Z,100127.00
2022-09-14T12:31:57.787Z,100168.00
2022-09-14T12:34:32.017Z,100191.00
2022-09-14T12:37:02.401Z,100184.00
2022-09-14T12:39:34.046Z,100172.00
2022-09-14T12:42:04.034Z,100155.00
2022-09-14T12:44:39.047Z,100139.00
2022-09-14T12:47:24.597Z,100156.00
2022-09-14T12:49:53.160Z,100145.00
2022-09-14T12:52:32.941Z,100154.00
2022-09-14T12:55:24.083Z,100149.00
2022-09-14T12:58:02.115Z,100134.00
2022-09-14T13:00:29.777Z,100149.00
2022-09-14T13:03:18.396Z,100133.00
2022-09-14T13:05:45.367Z,100102.00
2022-09-14T13:08:12.909Z,100119.00
2022-09-14T13:10:47.599Z,100127.00
2022-09-14T13:13:21.666Z,100126.00
2022-09-14T13:15:56.341Z,100127.00
2022-09-14T13:18:23.033Z,100118.00
2022-09-14T13:20:57.214Z,100119.00
2022-09-14T13:23:32.927Z,100119.00
2022-09-14T13:26:00.179Z,100143.00
2022-09-14T13:28:31.148Z,100156.00
2022-09-14T13:31:00.677Z,100156.00
2022-09-14T13:33:29.869Z,100155.00
2022-09-14T13:36:02.350Z,100167.00
2022-09-14T13:38:34.445Z,100179.00
2022-09-14T13:41:10.458Z,100166.00
2022-09-14T13:43:40.062Z,100137.00
2022-09-14T13:46:08.176Z,100129.00
2022-09-14T13:48:37.270Z,100145.00
2022-09-14T13:51:05.196Z,100122.00
2022-09-14T13:54:18.063Z,100118.00
2022-09-14T13:56:44.785Z,100133.00
2022-09-14T13:59:17.816Z,100117.00
2022-09-14T14:01:56.279Z,100118.00
2022-09-14T14:04:28.136Z,100115.00
2022-09-14T14:07:30.282Z,100122.00
2022-09-14T14:09:58.214Z,100113.00
2022-09-14T14:12:43.198Z,100123.00
2022-09-14T14:15:12.734Z,100111.00
2022-09-14T14:17:41.254Z,100109.00
2022-09-14T14:20:34.760Z,100112.00
2022-09-14T14:23:10.703Z,100087.00
2022-09-14T14:25:54.191Z,100075.00
2022-09-14T14:28:25.424Z,100046.00
2022-09-14T14:30:54.345Z,100047.00
2022-09-14T14:33:24.366Z,100039.00
2022-09-14T14:35:53.397Z,100048.00
2022-09-14T14:38:22.791Z,100037.00
2022-09-14T14:40:50.641Z,100030.00
2022-09-14T14:43:24.884Z,100021.00
2022-09-14T14:45:55.129Z,100030.00
2022-09-14T14:48:23.139Z,100022.00
2022-09-14T14:50:55.414Z,100021.00
2022-09-14T14:53:23.348Z,100018.00
2022-09-14T14:55:50.596Z,100002.00
2022-09-14T14:58:21.734Z,100018.00
2022-09-14T15:00:49.132Z,100008.00
2022-09-14T15:03:16.798Z,100002.00
2022-09-14T15:05:46.138Z,100002.00
2022-09-14T15:08:14.198Z,99993.00
2022-09-14T15:10:41.561Z,99995.00
2022-09-14T15:13:09.833Z,100001.00
2022-09-14T15:15:36.569Z,100001.00
2022-09-14T15:18:03.420Z,99997.00
2022-09-14T15:20:30.806Z,99999.00
2022-09-14T15:23:00.835Z,99992.00
2022-09-14T15:25:27.628Z,99993.00
2022-09-14T15:27:54.362Z,99983.00
2022-09-14T15:30:21.146Z,99968.00
2022-09-14T15:32:48.172Z,99970.00
2022-09-14T15:35:15.612Z,99972.00
2022-09-14T15:37:42.501Z,99964.00
2022-09-14T15:40:09.993Z,99960.00
2022-09-14T15:42:36.848Z,99946.00
2022-09-14T15:45:04.723Z,99953.00
2022-09-14T15:47:36.071Z,99950.00
2022-09-14T15:50:04.478Z,99951.00
2022-09-14T15:52:31.331Z,99942.00
2022-09-14T15:54:58.307Z,99949.00
2022-09-14T15:57:27.191Z,99935.00
2022-09-14T15:59:55.220Z,99942.00
2022-09-14T16:02:22.221Z,99947.00
2022-09-14T16:04:49.063Z,99950.00
2022-09-14T16:07:16.071Z,99935.00
2022-09-14T16:09:43.089Z,99937.00
2022-09-14T16:12:12.290Z,99945.00
2022-09-14T16:14:39.162Z,99941.00
2022-09-14T16:17:05.984Z,99951.00
2022-09-14T16:19:32.752Z,99945.00
2022-09-14T16:21:59.795Z,99931.00
2022-09-14T16:24:27.342Z,99934.00
2022-09-14T16:26:54.531Z,99934.00
2022-09-14T16:29:23.701Z,99938.00
2022-09-14T16:31:51.225Z,99945.00
2022-09-14T16:34:22.172Z,99947.00
2022-09-14T16:36:52.826Z,99939.00
2022-09-14T16:39:25.171Z,99945.00
2022-09-14T16:41:56.859Z,99962.00
2022-09-14T16:44:28.260Z,99955.00
2022-09-14T16:46:58.155Z,99952.00
2022-09-14T16:49:28.095Z,99943.00
2022-09-14T16:51:55.982Z,99941.00
2022-09-14T16:54:24.305Z,99947.00
2022-09-14T16:56:51.285Z,99930.00
2022-09-14T16:59:19.339Z,99933.00
2022-09-14T17:01:50.822Z,99923.00
2022-09-14T17:04:23.060Z,99928.00
2022-09-14T17:06:51.494Z,99918.00
2022-09-14T17:09:20.802Z,99930.00
2022-09-14T17:11:48.468Z,99916.00
2022-09-14T17:14:21.411Z,99929.00
2022-09-14T17:16:48.707Z,99922.00
2022-09-14T17:19:15.805Z,99908.00
2022-09-14T17:21:43.901Z,99915.00
2022-09-14T17:24:10.818Z,99908.00
2022-09-14T17:26:37.924Z,99914.00
2022-09-14T17:29:05.349Z,99906.00
2022-09-14T17:31:34.642Z,99913.00
2022-09-14T17:34:03.242Z,99911.00
2022-09-14T17:36:29.966Z,99913.00
2022-09-14T17:39:02.036Z,99912.00
2022-09-14T17:41:33.884Z,99900.00
2022-09-14T17:44:02.646Z,99895.00
2022-09-14T17:46:29.810Z,99886.00
2022-09-14T17:48:57.777Z,99891.00
2022-09-14T17:51:26.962Z,99890.00
2022-09-14T17:53:55.213Z,99890.00
2022-09-14T17:56:24.447Z,99897.00
2022-09-14T17:58:58.901Z,99890.00
2022-09-14T18:01:25.973Z,99883.00
2022-09-14T18:03:55.285Z,99888.00
2022-09-14T18:06:25.628Z,99889.00
2022-09-14T18:08:57.816Z,99888.00
2022-09-14T18:11:24.673Z,99887.00
2022-09-14T18:13:51.617Z,99878.00
2022-09-14T18:16:19.977Z,99879.00
2022-09-14T18:18:46.980Z,99873.00
2022-09-14T18:21:14.924Z,99879.00
2022-09-14T18:23:41.616Z,99881.00
2022-09-14T18:26:08.469Z,99875.00
2022-09-14T18:28:36.023Z,99871.00
2022-09-14T18:31:05.775Z,99882.00
2022-09-14T18:33:32.981Z,99881.00
2022-09-14T18:35:59.804Z,99883.00
2022-09-14T18:38:26.558Z,99877.00
2022-09-14T18:40:56.184Z,99879.00
2022-09-14T18:43:22.875Z,99873.00
2022-09-14T18:45:49.811Z,99872.00
2022-09-14T18:48:16.687Z,99875.00
2022-09-14T18:50:43.439Z,99874.00
2022-09-14T18:53:10.347Z,99872.00
2022-09-14T18:55:37.108Z,99874.00
2022-09-14T18:58:03.847Z,99872.00
2022-09-14T19:00:31.095Z,99868.00
2022-09-14T19:02:58.537Z,99880.00
2022-09-14T19:05:26.453Z,99878.00
2022-09-14T19:07:53.454Z,99872.00
2022-09-14T19:10:21.106Z,99872.00
2022-09-14T19:12:47.930Z,99863.00
2022-09-14T19:15:14.957Z,99865.00
2022-09-14T19:17:42.379Z,99864.00
2022-09-14T19:20:11.190Z,99865.00
2022-09-14T19:22:38.690Z,99863.00
2022-09-14T19:25:05.882Z,99848.00
2022-09-14T19:27:33.219Z,99858.00
2022-09-14T19:30:01.369Z,99855.00
2022-09-14T19:32:33.855Z,99861.00
2022-09-14T19:35:00.761Z,99860.00
2022-09-14T19:37:30.434Z,99851.00
2022-09-14T19:39:58.094Z,99850.00
2022-09-14T19:42:25.693Z,99859.00
2022-09-14T19:44:52.688Z,99849.00
2022-09-14T19:47:19.850Z,99848.00
2022-09-14T19:49:46.596Z,99847.00
2022-09-14T19:52:13.340Z,99854.00
2022-09-14T19:54:40.051Z,99839.00
2022-09-14T19:57:06.865Z,99854.00
2022-09-14T19:59:33.651Z,99850.00
2022-09-14T20:02:00.442Z,99859.00
2022-09-14T20:04:27.235Z,99860.00
2022-09-14T20:06:55.283Z,99842.00
2022-09-14T20:09:23.821Z,99853.00
2022-09-14T20:11:51.693Z,99856.00
2022-09-14T20:14:21.466Z,99856.00
2022-09-14T20:16:50.924Z,99852.00
2022-09-14T20:19:19.562Z,99853.00
2022-09-14T20:21:47.650Z,99847.00
2022-09-14T20:24:18.274Z,99851.00
2022-09-14T20:26:50.134Z,99854.00
2022-09-14T20:29:18.683Z,99845.00
2022-09-14T20:31:46.263Z,99850.00
2022-09-14T20:34:28.431Z,99851.00
2022-09-14T20:36:55.877Z,99852.00
2022-09-14T20:39:23.662Z,99848.00
2022-09-14T20:41:50.691Z,99848.00
2022-09-14T20:44:22.304Z,99849.00
2022-09-14T20:46:50.279Z,99860.00
2022-09-14T20:49:19.922Z,99857.00
2022-09-14T20:51:46.815Z,99869.00
2022-09-14T20:54:15.160Z,99871.00
2022-09-14T20:56:42.517Z,99869.00
2022-09-14T20:59:12.222Z,99862.00
2022-09-14T21:01:41.328Z,99856.00
2022-09-14T21:04:13.252Z,99846.00
2022-09-14T21:06:45.938Z,99841.00
2022-09-14T21:09:13.886Z,99840.00
2022-09-14T21:11:41.185Z,99837.00
2022-09-14T21:14:10.149Z,99848.00
2022-09-14T21:16:43.169Z,99846.00
2022-09-14T21:19:16.208Z,99841.00
2022-09-14T21:21:43.355Z,99849.00
2022-09-14T21:24:13.316Z,99857.00
2022-09-14T21:26:42.879Z,99860.00
2022-09-14T21:29:16.118Z,99861.00
2022-09-14T21:31:43.720Z,99842.00
2022-09-14T21:34:11.858Z,99840.00
2022-09-14T21:36:46.745Z,99829.00
2022-09-14T21:39:17.033Z,99832.00
2022-09-14T21:41:44.865Z,99836.00
2022-09-14T21:44:13.347Z,99835.00
2022-09-14T21:46:40.382Z,99828.00
2022-09-14T21:49:07.157Z,99832.00
2022-09-14T21:51:36.116Z,99825.00
2022-09-14T21:54:05.561Z,99818.00
2022-09-14T21:56:35.006Z,99820.00
2022-09-14T21:59:04.159Z,99805.00
2022-09-14T22:01:31.335Z,99802.00
2022-09-14T22:03:58.444Z,99799.00
2022-09-14T22:06:28.935Z,99798.00
2022-09-14T22:09:01.046Z,99811.00
2022-09-14T22:11:31.252Z,99807.00
2022-09-14T22:14:06.633Z,99807.00
2022-09-14T22:16:36.079Z,99806.00
2022-09-14T22:19:05.540Z,99793.00
2022-09-14T22:21:36.492Z,99797.00
2022-09-14T22:24:06.117Z,99790.00
2022-09-14T22:26:34.151Z,99793.00
2022-09-14T22:29:01.009Z,99790.00
2022-09-14T22:31:29.026Z,99788.00
2022-09-14T22:33:56.937Z,99788.00
2022-09-14T22:36:23.979Z,99785.00
2022-09-14T22:38:50.689Z,99778.00
2022-09-14T22:41:22.178Z,99789.00
2022-09-14T22:43:49.327Z,99780.00
2022-09-14T22:46:17.091Z,99786.00
2022-09-14T22:48:44.583Z,99789.00
2022-09-14T22:51:17.017Z,99788.00
2022-09-14T22:53:43.801Z,99784.00
2022-09-14T22:56:24.961Z,99795.00
2022-09-14T22:58:52.191Z,99788.00
2022-09-14T23:01:25.035Z,99778.00
2022-09-14T23:04:00.474Z,99775.00
2022-09-14T23:06:29.314Z,99781.00
2022-09-14T23:08:56.693Z,99788.00
2022-09-14T23:11:23.882Z,99782.00
2022-09-14T23:13:50.600Z,99795.00
2022-09-14T23:16:20.077Z,99783.00
2022-09-14T23:18:51.566Z,99796.00
2022-09-14T23:21:18.870Z,99803.00
2022-09-14T23:23:51.373Z,99803.00
2022-09-14T23:26:18.123Z,99791.00
2022-09-14T23:28:44.890Z,99789.00
2022-09-14T23:31:11.707Z,99790.00
2022-09-14T23:33:38.514Z,99787.00
2022-09-14T23:36:05.390Z,99785.00
2022-09-14T23:38:34.218Z,99769.00
2022-09-14T23:41:01.126Z,99780.00
2022-09-14T23:43:27.842Z,99775.00
2022-09-14T23:45:54.641Z,99769.00
2022-09-14T23:48:21.490Z,99761.00
2022-09-14T23:51:02.888Z,99754.00
2022-09-14T23:53:30.104Z,99757.00
2022-09-14T23:55:56.979Z,99764.00
2022-09-14T23:58:24.118Z,99758.00
